createdAt,value
2018-03-23T00:01:11.365Z,12.10
2018-03-23T00:03:46.806Z,12.10
2018-03-23T00:06:22.050Z,12.10
2018-03-23T00:08:57.285Z,12.00
2018-03-23T00:11:33.351Z,11.90
2018-03-23T00:14:09.634Z,11.90
2018-03-23T00:16:45.433Z,11.80
2018-03-23T00:19:22.962Z,11.70
2018-03-23T00:21:58.197Z,11.70
2018-03-23T00:24:34.053Z,11.70
2018-03-23T00:27:08.880Z,11.80
2018-03-23T00:29:43.817Z,11.80
2018-03-23T00:32:19.057Z,12.00
2018-03-23T00:34:53.882Z,12.00
2018-03-23T00:37:30.146Z,12.00
2018-03-23T00:40:04.975Z,12.00
2018-03-23T00:42:40.013Z,12.00
2018-03-23T00:45:14.740Z,12.00
2018-03-23T00:47:50.003Z,12.00
2018-03-23T00:50:25.570Z,12.00
2018-03-23T00:53:01.402Z,12.00
2018-03-23T00:55:36.722Z,11.80
2018-03-23T00:58:12.475Z,11.70
2018-03-23T01:00:48.639Z,11.60
2018-03-23T01:03:23.884Z,11.70
2018-03-23T01:05:59.526Z,11.70
2018-03-23T01:08:34.763Z,11.80
2018-03-23T01:11:10.526Z,11.90
2018-03-23T01:13:45.762Z,11.80
2018-03-23T01:16:21.007Z,11.70
2018-03-23T01:18:56.031Z,11.70
2018-03-23T01:21:32.712Z,11.70
2018-03-23T01:24:07.947Z,11.70
2018-03-23T01:26:43.593Z,11.70
2018-03-23T01:29:18.731Z,11.80
2018-03-23T01:31:54.484Z,11.70
2018-03-23T01:34:30.438Z,11.70
2018-03-23T01:37:06.100Z,11.70
2018-03-23T01:39:40.924Z,11.70
2018-03-23T01:42:15.960Z,11.70
2018-03-23T01:44:51.761Z,11.70
2018-03-23T01:47:26.536Z,11.70
2018-03-23T01:50:01.984Z,11.60
2018-03-23T01:52:38.044Z,11.60
2018-03-23T01:55:13.180Z,11.60
2018-03-23T01:57:48.935Z,11.50
2018-03-23T02:00:25.606Z,11.50
2018-03-23T02:03:01.356Z,11.50
2018-03-23T02:05:36.859Z,11.50
2018-03-23T02:08:13.229Z,11.60
2018-03-23T02:10:48.723Z,11.60
2018-03-23T02:13:24.161Z,11.60
2018-03-23T02:15:59.603Z,11.50
2018-03-23T02:18:35.355Z,11.40
2018-03-23T02:21:10.599Z,11.40
2018-03-23T02:23:45.943Z,11.30
2018-03-23T02:26:21.995Z,11.20
2018-03-23T02:28:57.543Z,11.20
2018-03-23T02:31:33.908Z,11.10
2018-03-23T02:34:08.945Z,11.10
2018-03-23T02:36:43.981Z,11.10
2018-03-23T02:39:19.731Z,11.10
2018-03-23T02:41:55.691Z,11.20
2018-03-23T02:44:31.336Z,11.10
2018-03-23T02:47:06.165Z,11.00
2018-03-23T02:49:41.109Z,11.00
2018-03-23T02:52:15.935Z,11.00
2018-03-23T02:54:52.549Z,11.00
2018-03-23T02:57:28.458Z,11.00
2018-03-23T03:00:04.106Z,10.90
2018-03-23T03:02:39.759Z,11.00
2018-03-23T03:05:14.939Z,10.70
2018-03-23T03:07:50.645Z,10.60
2018-03-23T03:10:25.476Z,10.60
2018-03-23T03:13:00.719Z,10.70
2018-03-23T03:15:36.773Z,10.80
2018-03-23T03:18:12.628Z,10.80
2018-03-23T03:20:48.017Z,10.80
2018-03-23T03:23:23.520Z,10.70
2018-03-23T03:25:58.553Z,10.70
2018-03-23T03:28:34.152Z,10.70
2018-03-23T03:31:10.617Z,10.80
2018-03-23T03:33:45.705Z,10.70
2018-03-23T03:36:20.536Z,10.70
2018-03-23T03:38:55.367Z,10.60
2018-03-23T03:41:31.015Z,10.60
2018-03-23T03:44:05.846Z,10.60
2018-03-23T03:46:41.087Z,10.60
2018-03-23T03:49:16.236Z,10.70
2018-03-23T03:51:51.872Z,10.70
2018-03-23T03:54:27.121Z,10.70
2018-03-23T03:57:02.763Z,10.70
2018-03-23T03:59:38.209Z,10.60
2018-03-23T04:02:14.373Z,10.50
2018-03-23T04:04:49.814Z,10.30
2018-03-23T04:07:24.863Z,10.20
2018-03-23T04:09:59.688Z,10.10
2018-03-23T04:12:34.873Z,10.10
2018-03-23T04:15:10.977Z,10.10
2018-03-23T04:17:47.447Z,10.10
2018-03-23T04:20:22.384Z,10.10
2018-03-23T04:22:57.256Z,10.20
2018-03-23T04:25:32.777Z,10.20
2018-03-23T04:28:07.736Z,10.20
2018-03-23T04:30:42.830Z,10.20
2018-03-23T04:33:17.556Z,10.30
2018-03-23T04:35:52.593Z,10.20
2018-03-23T04:38:28.244Z,10.10
2018-03-23T04:41:03.683Z,10.00
2018-03-23T04:43:39.234Z,10.00
2018-03-23T04:46:14.881Z,10.00
2018-03-23T04:48:50.532Z,10.00
2018-03-23T04:51:26.235Z,10.10
2018-03-23T04:54:01.115Z,10.10
2018-03-23T04:56:36.869Z,10.10
2018-03-23T04:59:12.553Z,10.20
2018-03-23T05:01:49.298Z,10.20
2018-03-23T05:04:24.326Z,10.20
2018-03-23T05:06:59.362Z,10.30
2018-03-23T05:09:35.009Z,10.20
2018-03-23T05:12:09.942Z,10.20
2018-03-23T05:14:45.589Z,10.20
2018-03-23T05:17:21.959Z,10.20
2018-03-23T05:19:57.302Z,10.20
2018-03-23T05:22:32.332Z,10.30
2018-03-23T05:25:07.984Z,10.30
2018-03-23T05:27:42.924Z,10.30
2018-03-23T05:30:18.678Z,10.40
2018-03-23T05:32:54.421Z,10.40
2018-03-23T05:35:29.250Z,10.40
2018-03-23T05:38:05.615Z,10.50
2018-03-23T05:40:41.670Z,10.50
2018-03-23T05:43:16.815Z,10.50
2018-03-23T05:45:53.074Z,10.50
2018-03-23T05:48:28.054Z,10.50
2018-03-23T05:51:03.352Z,10.50
2018-03-23T05:53:39.000Z,10.40
2018-03-23T05:56:14.647Z,10.30
2018-03-23T05:58:50.094Z,10.30
2018-03-23T06:01:25.947Z,10.30
2018-03-23T06:04:01.393Z,10.30
2018-03-23T06:06:38.688Z,10.30
2018-03-23T06:09:15.363Z,10.30
2018-03-23T06:11:51.763Z,10.30
2018-03-23T06:14:28.909Z,10.40
2018-03-23T06:17:04.147Z,10.40
2018-03-23T06:19:39.793Z,10.50
2018-03-23T06:22:14.624Z,10.50
2018-03-23T06:24:50.491Z,10.70
2018-03-23T06:27:25.718Z,10.70
2018-03-23T06:30:00.761Z,10.80
2018-03-23T06:32:35.587Z,10.80
2018-03-23T06:35:10.781Z,10.80
2018-03-23T06:37:46.882Z,10.70
2018-03-23T06:40:22.338Z,10.70
2018-03-23T06:42:57.980Z,10.70
2018-03-23T06:45:32.707Z,10.80
2018-03-23T06:48:07.944Z,11.00
2018-03-23T06:50:42.785Z,11.00
2018-03-23T06:53:18.018Z,11.10
2018-03-23T06:55:53.663Z,11.30
2018-03-23T06:58:28.650Z,11.40
2018-03-23T07:01:04.050Z,11.30
2018-03-23T07:03:38.887Z,11.40
2018-03-23T07:06:14.526Z,11.50
2018-03-23T07:08:50.379Z,11.70
2018-03-23T07:11:26.846Z,12.50
2018-03-23T07:14:01.892Z,12.50
2018-03-23T07:16:36.921Z,13.20
2018-03-23T07:19:11.747Z,13.70
2018-03-23T07:21:46.576Z,14.20
2018-03-23T07:24:21.813Z,13.50
2018-03-23T07:26:57.671Z,14.20
2018-03-23T07:29:32.703Z,14.60
2018-03-23T07:32:07.535Z,14.70
2018-03-23T07:34:42.671Z,14.50
2018-03-23T07:37:17.916Z,14.40
2018-03-23T07:39:54.380Z,14.70
2018-03-23T07:42:30.028Z,14.70
2018-03-23T07:45:05.725Z,14.80
2018-03-23T07:47:40.920Z,15.20
2018-03-23T07:50:16.774Z,15.50
2018-03-23T07:52:51.613Z,15.90
2018-03-23T07:55:26.591Z,16.40
2018-03-23T07:58:02.390Z,16.80
2018-03-23T08:00:37.220Z,16.80
2018-03-23T08:03:12.357Z,17.30
2018-03-23T08:05:47.187Z,17.50
2018-03-23T08:08:22.222Z,17.70
2018-03-23T08:10:57.260Z,17.30
2018-03-23T08:13:33.529Z,17.30
2018-03-23T08:16:09.891Z,17.30
2018-03-23T08:18:45.339Z,17.30
2018-03-23T08:21:20.164Z,17.10
2018-03-23T08:23:55.403Z,16.40
2018-03-23T08:26:31.157Z,16.00
2018-03-23T08:29:06.906Z,15.20
2018-03-23T08:31:41.738Z,14.80
2018-03-23T08:34:16.773Z,14.40
2018-03-23T08:36:51.617Z,14.20
2018-03-23T08:39:26.640Z,14.10
2018-03-23T08:42:01.670Z,14.30
2018-03-23T08:44:36.759Z,14.20
2018-03-23T08:47:11.687Z,14.50
2018-03-23T08:49:47.269Z,14.50
2018-03-23T08:52:23.146Z,14.50
2018-03-23T08:54:58.127Z,14.50
2018-03-23T08:57:33.733Z,14.90
2018-03-23T09:00:09.173Z,15.40
2018-03-23T09:02:44.615Z,14.70
2018-03-23T09:05:20.062Z,14.70
2018-03-23T09:07:54.894Z,14.20
2018-03-23T09:10:30.337Z,14.20
2018-03-23T09:13:06.195Z,14.40
2018-03-23T09:15:42.247Z,15.40
2018-03-23T09:18:18.106Z,15.40
2018-03-23T09:20:53.343Z,15.60
2018-03-23T09:23:28.806Z,15.60
2018-03-23T09:26:04.233Z,15.70
2018-03-23T09:28:40.034Z,15.80
2018-03-23T09:31:15.982Z,15.80
2018-03-23T09:33:50.978Z,15.80
2018-03-23T09:36:26.441Z,15.30
2018-03-23T09:39:02.070Z,15.10
2018-03-23T09:41:37.103Z,14.60
2018-03-23T09:44:12.764Z,14.50
2018-03-23T09:46:47.788Z,14.60
2018-03-23T09:49:23.596Z,15.10
2018-03-23T09:51:58.678Z,15.10
2018-03-23T09:54:33.614Z,15.20
2018-03-23T09:57:08.944Z,15.30
2018-03-23T09:59:44.915Z,15.50
2018-03-23T10:02:19.842Z,15.30
2018-03-23T10:04:56.513Z,15.40
2018-03-23T10:07:32.390Z,15.40
2018-03-23T10:10:08.024Z,15.60
2018-03-23T10:12:43.931Z,15.60
2018-03-23T10:15:19.768Z,15.70
2018-03-23T10:17:54.767Z,16.20
2018-03-23T10:20:29.807Z,16.10
2018-03-23T10:23:05.562Z,15.70
2018-03-23T10:25:41.197Z,15.80
2018-03-23T10:28:16.240Z,15.80
2018-03-23T10:30:51.988Z,16.00
2018-03-23T10:33:28.456Z,15.70
2018-03-23T10:36:04.206Z,15.70
2018-03-23T10:38:40.064Z,15.60
2018-03-23T10:41:14.890Z,15.60
2018-03-23T10:43:49.889Z,15.70
2018-03-23T10:46:25.676Z,15.90
2018-03-23T10:49:01.737Z,16.00
2018-03-23T10:51:37.181Z,15.80
2018-03-23T10:54:12.011Z,15.60
2018-03-23T10:56:47.865Z,15.70
2018-03-23T10:59:23.718Z,15.90
2018-03-23T11:02:04.082Z,15.80
2018-03-23T11:04:39.534Z,15.90
2018-03-23T11:07:15.176Z,15.90
2018-03-23T11:09:50.109Z,16.00
2018-03-23T11:12:25.313Z,16.00
2018-03-23T11:15:00.179Z,16.00
2018-03-23T11:17:36.243Z,16.20
2018-03-23T11:20:12.098Z,16.30
2018-03-23T11:22:47.946Z,16.60
2018-03-23T11:25:23.702Z,16.80
2018-03-23T11:27:58.730Z,16.80
2018-03-23T11:30:34.591Z,16.90
2018-03-23T11:33:10.132Z,16.90
2018-03-23T11:35:45.484Z,17.10
2018-03-23T11:38:21.086Z,17.10
2018-03-23T11:40:56.170Z,17.10
2018-03-23T11:43:31.200Z,17.10
2018-03-23T11:46:06.245Z,17.20
2018-03-23T11:48:41.164Z,17.40
2018-03-23T11:51:16.410Z,17.20
2018-03-23T11:53:52.053Z,17.40
2018-03-23T11:56:26.845Z,17.70
2018-03-23T11:59:02.737Z,17.70
2018-03-23T12:01:38.695Z,18.10
2018-03-23T12:04:14.348Z,18.90
2018-03-23T12:06:49.999Z,19.90
2018-03-23T12:09:26.034Z,20.30
2018-03-23T12:12:01.494Z,21.00
2018-03-23T12:14:36.325Z,22.70
2018-03-23T12:17:14.583Z,23.50
2018-03-23T12:19:50.025Z,23.30
2018-03-23T12:22:25.527Z,23.80
2018-03-23T12:25:00.254Z,24.40
2018-03-23T12:27:35.288Z,24.10
2018-03-23T12:30:11.300Z,24.40
2018-03-23T12:32:47.102Z,23.90
2018-03-23T12:35:22.102Z,23.90
2018-03-23T12:37:57.219Z,24.50
2018-03-23T12:40:33.195Z,24.40
2018-03-23T12:43:08.692Z,24.00
2018-03-23T12:45:44.575Z,23.20
2018-03-23T12:48:20.893Z,22.40
2018-03-23T12:50:55.942Z,22.00
2018-03-23T12:53:31.735Z,22.20
2018-03-23T12:56:07.044Z,22.40
2018-03-23T12:58:42.474Z,21.80
2018-03-23T13:01:18.299Z,21.70
2018-03-23T13:03:54.243Z,21.40
2018-03-23T13:06:29.322Z,21.30
2018-03-23T13:09:05.375Z,20.80
2018-03-23T13:11:41.125Z,20.60
2018-03-23T13:14:16.572Z,20.40
2018-03-23T13:16:52.319Z,20.40
2018-03-23T13:19:27.732Z,19.60
2018-03-23T13:22:03.619Z,19.90
2018-03-23T13:24:38.653Z,20.10
2018-03-23T13:27:13.647Z,20.30
2018-03-23T13:29:49.470Z,20.80
2018-03-23T13:32:25.396Z,20.70
2018-03-23T13:35:01.252Z,20.30
2018-03-23T13:37:36.087Z,20.30
2018-03-23T13:40:11.791Z,19.90
2018-03-23T13:42:47.037Z,19.90
2018-03-23T13:45:23.135Z,20.00
2018-03-23T13:47:58.896Z,19.90
2018-03-23T13:50:34.023Z,20.20
2018-03-23T13:53:09.829Z,20.40
2018-03-23T13:55:44.716Z,20.80
2018-03-23T13:58:20.098Z,21.20
2018-03-23T14:01:02.359Z,21.50
2018-03-23T14:03:37.700Z,21.70
2018-03-23T14:06:13.207Z,21.20
2018-03-23T14:08:48.651Z,21.10
2018-03-23T14:11:24.340Z,20.20
2018-03-23T14:13:59.381Z,18.70
2018-03-23T14:16:35.209Z,17.70
2018-03-23T14:19:10.689Z,17.30
2018-03-23T14:21:46.884Z,16.70
2018-03-23T14:24:22.295Z,16.60
2018-03-23T14:26:58.232Z,16.70
2018-03-23T14:29:33.386Z,16.50
2018-03-23T14:32:08.514Z,16.30
2018-03-23T14:34:44.438Z,16.10
2018-03-23T14:37:20.512Z,15.80
2018-03-23T14:39:56.406Z,15.70
2018-03-23T14:42:32.239Z,15.60
2018-03-23T14:45:08.186Z,15.30
2018-03-23T14:47:44.157Z,15.50
2018-03-23T14:50:19.804Z,15.60
2018-03-23T14:52:55.650Z,15.80
2018-03-23T14:55:31.254Z,15.80
2018-03-23T14:58:06.342Z,15.80
2018-03-23T15:00:42.138Z,16.10
2018-03-23T15:03:17.836Z,16.10
2018-03-23T15:05:52.827Z,16.00
2018-03-23T15:08:28.119Z,15.90
2018-03-23T15:11:03.249Z,15.90
2018-03-23T15:13:38.287Z,15.70
2018-03-23T15:16:13.424Z,15.50
2018-03-23T15:18:48.252Z,15.20
2018-03-23T15:21:23.578Z,15.00
2018-03-23T15:26:40.124Z,15.10
2018-03-23T15:29:15.152Z,15.00
2018-03-23T15:31:49.985Z,14.90
2018-03-23T15:34:25.221Z,14.80
2018-03-23T15:37:01.746Z,14.70
2018-03-23T15:39:37.862Z,14.70
2018-03-23T15:42:14.322Z,14.80
2018-03-23T15:44:49.568Z,14.80
2018-03-23T15:47:25.325Z,14.80
2018-03-23T15:50:00.177Z,14.80
2018-03-23T15:52:35.390Z,14.80
2018-03-23T15:55:10.622Z,14.70
2018-03-23T15:57:46.395Z,14.70
2018-03-23T16:00:21.410Z,14.70
2018-03-23T16:02:57.164Z,14.70
2018-03-23T16:05:32.727Z,14.60
2018-03-23T16:08:07.887Z,14.50
2018-03-23T16:10:42.777Z,14.40
2018-03-23T16:13:18.100Z,14.30
2018-03-23T16:15:52.928Z,14.30
2018-03-23T16:18:27.832Z,14.30
2018-03-23T16:21:03.533Z,14.20
2018-03-23T16:23:38.467Z,14.10
2018-03-23T16:26:15.753Z,14.00
2018-03-23T16:28:50.999Z,14.10
2018-03-23T16:31:26.439Z,14.00
2018-03-23T16:34:02.097Z,13.90
2018-03-23T16:36:37.593Z,13.80
2018-03-23T16:39:14.413Z,13.80
2018-03-23T16:41:49.452Z,13.80
2018-03-23T16:44:25.093Z,13.80
2018-03-23T16:47:01.212Z,13.70
2018-03-23T16:49:36.498Z,13.70
2018-03-23T16:52:12.351Z,13.60
2018-03-23T16:54:48.007Z,13.60
2018-03-23T16:57:24.067Z,13.50
2018-03-23T16:59:59.063Z,13.60
2018-03-23T17:02:34.130Z,13.50
2018-03-23T17:05:11.415Z,13.30
2018-03-23T17:07:47.033Z,13.30
2018-03-23T17:10:23.635Z,13.20
2018-03-23T17:12:59.387Z,13.20
2018-03-23T17:15:35.142Z,13.30
2018-03-23T17:18:10.688Z,13.30
2018-03-23T17:20:46.749Z,13.20
2018-03-23T17:23:22.804Z,13.00
2018-03-23T17:25:58.069Z,13.00
2018-03-23T17:28:33.859Z,13.00
2018-03-23T17:31:09.039Z,12.90
2018-03-23T17:33:44.175Z,13.00
2018-03-23T17:36:20.029Z,13.10
2018-03-23T17:38:58.453Z,13.00
2018-03-23T17:41:34.402Z,13.00
2018-03-23T17:44:09.849Z,12.90
2018-03-23T17:46:45.715Z,12.90
2018-03-23T17:49:21.351Z,12.90
2018-03-23T17:51:56.561Z,12.90
2018-03-23T17:54:32.993Z,12.80
2018-03-23T17:57:09.121Z,12.80
2018-03-23T17:59:45.078Z,12.90
2018-03-23T18:02:20.620Z,12.80
2018-03-23T18:04:56.720Z,12.90
2018-03-23T18:07:32.744Z,13.00
2018-03-23T18:10:08.257Z,12.90
2018-03-23T18:12:43.321Z,13.00
2018-03-23T18:15:18.471Z,13.00
2018-03-23T18:17:53.494Z,13.00
2018-03-23T18:20:28.531Z,13.00
2018-03-23T18:23:03.820Z,13.00
2018-03-23T18:25:39.633Z,13.00
2018-03-23T18:28:15.171Z,13.00
2018-03-23T18:30:50.204Z,12.90
2018-03-23T18:33:26.204Z,12.90
2018-03-23T18:36:01.670Z,12.90
2018-03-23T18:38:36.537Z,12.90
2018-03-23T18:41:11.986Z,12.90
2018-03-23T18:43:47.126Z,12.90
2018-03-23T18:46:23.212Z,12.90
2018-03-23T18:48:58.428Z,12.80
2018-03-23T18:51:33.870Z,12.80
2018-03-23T18:54:08.900Z,13.10
2018-03-23T18:56:44.902Z,12.80
2018-03-23T18:59:20.615Z,12.90
2018-03-23T19:01:56.277Z,13.00
2018-03-23T19:04:31.339Z,13.00
2018-03-23T19:07:08.190Z,13.00
2018-03-23T19:09:45.058Z,12.90
2018-03-23T19:12:20.192Z,12.80
2018-03-23T19:14:55.885Z,12.90
2018-03-23T19:17:31.286Z,12.90
2018-03-23T19:20:06.996Z,12.90
2018-03-23T19:22:42.786Z,13.00
2018-03-23T19:25:19.663Z,13.00
2018-03-23T19:27:54.715Z,13.10
2018-03-23T19:30:29.847Z,13.00
2018-03-23T19:33:05.397Z,12.90
2018-03-23T19:35:40.621Z,12.90
2018-03-23T19:38:15.414Z,12.90
2018-03-23T19:40:50.507Z,12.90
2018-03-23T19:43:25.781Z,12.90
2018-03-23T19:46:01.711Z,12.90
2018-03-23T19:48:37.299Z,12.80
2018-03-23T19:51:12.404Z,12.80
2018-03-23T19:53:47.900Z,12.80
2018-03-23T19:56:22.809Z,12.80
2018-03-23T19:58:58.803Z,12.80
2018-03-23T20:01:33.875Z,12.80
2018-03-23T20:04:10.549Z,12.80
2018-03-23T20:06:46.155Z,12.80
2018-03-23T20:09:20.912Z,12.80
2018-03-23T20:11:55.640Z,12.80
2018-03-23T20:14:31.373Z,12.70
2018-03-23T20:17:06.200Z,12.70
2018-03-23T20:19:41.229Z,12.70
2018-03-23T20:22:16.163Z,12.90
2018-03-23T20:24:51.248Z,12.70
2018-03-23T20:27:32.233Z,12.70
2018-03-23T20:30:07.684Z,12.70
2018-03-23T20:32:43.228Z,12.70
2018-03-23T20:35:18.313Z,12.70
2018-03-23T20:37:53.959Z,12.70
2018-03-23T20:40:29.377Z,12.80
2018-03-23T20:43:04.966Z,12.70
2018-03-23T20:45:39.851Z,12.80
2018-03-23T20:48:15.940Z,12.80
2018-03-23T20:50:52.000Z,12.80
2018-03-23T20:53:26.769Z,12.80
2018-03-23T20:56:02.586Z,12.60
2018-03-23T20:58:37.841Z,12.60
2018-03-23T21:01:12.872Z,12.70
2018-03-23T21:03:48.508Z,12.60
2018-03-23T21:06:24.786Z,12.60
2018-03-23T21:09:00.948Z,12.60
2018-03-23T21:11:36.581Z,12.60
2018-03-23T21:14:12.025Z,12.70
2018-03-23T21:16:48.260Z,12.80
2018-03-23T21:19:23.326Z,12.90
2018-03-23T21:21:58.290Z,12.80
2018-03-23T21:24:33.797Z,12.80
2018-03-23T21:27:08.806Z,12.80
2018-03-23T21:29:43.931Z,12.80
2018-03-23T21:32:19.631Z,12.80
2018-03-23T21:34:54.870Z,12.80
2018-03-23T21:37:30.484Z,12.70
2018-03-23T21:40:05.632Z,12.70
2018-03-23T21:42:42.295Z,12.70
2018-03-23T21:45:17.741Z,12.70
2018-03-23T21:47:53.393Z,12.70
2018-03-23T21:50:28.425Z,12.80
2018-03-23T21:53:05.654Z,12.80
2018-03-23T21:55:40.541Z,12.80
2018-03-23T21:58:15.690Z,12.80
2018-03-23T22:00:51.025Z,12.80
2018-03-23T22:03:26.054Z,12.80
2018-03-23T22:06:01.315Z,12.80
2018-03-23T22:08:36.481Z,12.80
2018-03-23T22:11:11.373Z,12.70
2018-03-23T22:13:46.400Z,12.80
2018-03-23T22:16:21.255Z,12.80
2018-03-23T22:18:57.087Z,12.80
2018-03-23T22:21:32.511Z,12.70
2018-03-23T22:24:08.182Z,12.60
2018-03-23T22:26:43.376Z,12.70
2018-03-23T22:29:18.455Z,12.60
2018-03-23T22:31:53.489Z,12.70
2018-03-23T22:34:28.525Z,12.80
2018-03-23T22:37:03.765Z,12.80
2018-03-23T22:39:39.414Z,12.80
2018-03-23T22:42:14.447Z,12.70
2018-03-23T22:44:50.048Z,12.80
2018-03-23T22:47:25.757Z,12.80
2018-03-23T22:50:00.785Z,12.80
2018-03-23T22:52:35.773Z,12.80
2018-03-23T22:55:10.928Z,12.80
2018-03-23T22:57:46.537Z,12.70
2018-03-23T23:00:21.866Z,12.70
2018-03-23T23:02:56.674Z,12.70
2018-03-23T23:05:31.918Z,12.70
2018-03-23T23:08:07.997Z,12.70
2018-03-23T23:10:45.054Z,12.80
2018-03-23T23:13:20.711Z,12.80
2018-03-23T23:15:55.639Z,12.80
2018-03-23T23:18:30.610Z,12.70
2018-03-23T23:21:07.147Z,12.70
2018-03-23T23:23:43.713Z,12.70
2018-03-23T23:26:19.123Z,12.70
2018-03-23T23:28:54.587Z,12.70
2018-03-23T23:31:30.173Z,12.80
2018-03-23T23:34:05.260Z,12.80
2018-03-23T23:36:41.459Z,12.70
2018-03-23T23:39:16.688Z,12.70
2018-03-23T23:41:52.532Z,12.70
2018-03-23T23:44:28.604Z,12.90
2018-03-23T23:47:04.872Z,12.90
2018-03-23T23:49:40.321Z,12.90
2018-03-23T23:52:15.317Z,12.90
2018-03-23T23:54:50.272Z,12.90
2018-03-23T23:57:25.057Z,12.80
